createdAt,value
2023-05-14T00:00:12.374Z,99.5213
2023-05-14T00:01:13.148Z,99.5777
2023-05-14T00:02:13.849Z,99.7441
2023-05-14T00:03:16.053Z,99.5968
2023-05-14T00:04:16.231Z,99.5811
2023-05-14T00:05:16.911Z,99.7799
2023-05-14T00:06:16.933Z,99.9917
2023-05-14T00:07:17.592Z,99.9980
2023-05-14T00:08:18.297Z,100.0000
2023-05-14T00:10:18.542Z,99.9842
2023-05-14T00:11:18.551Z,99.9962
2023-05-14T00:12:18.603Z,100.0000
2023-05-14T00:13:18.634Z,100.0000
2023-05-14T00:15:19.474Z,100.0000
2023-05-14T00:16:19.558Z,100.0000
2023-05-14T00:18:20.520Z,100.0000
2023-05-14T00:19:41.551Z,100.0000
2023-05-14T00:20:23.020Z,100.0000
2023-05-14T00:21:23.943Z,100.0000
2023-05-14T00:22:24.582Z,100.0000
2023-05-14T00:23:24.636Z,100.0000
2023-05-14T00:24:25.314Z,100.0000
2023-05-14T00:25:25.372Z,100.0000
2023-05-14T00:26:25.401Z,100.0000
2023-05-14T00:27:26.033Z,100.0000
2023-05-14T00:28:26.078Z,100.0000
2023-05-14T00:29:26.121Z,100.0000
2023-05-14T00:30:26.190Z,100.0000
2023-05-14T00:31:26.883Z,100.0000
2023-05-14T00:32:26.914Z,100.0000
2023-05-14T00:33:27.767Z,100.0000
2023-05-14T00:34:28.450Z,100.0000
2023-05-14T00:35:28.484Z,100.0000
2023-05-14T00:36:29.073Z,100.0000
2023-05-14T00:37:30.061Z,100.0000
2023-05-14T00:38:30.090Z,100.0000
2023-05-14T00:39:30.891Z,100.0000
2023-05-14T00:40:31.988Z,100.0000
2023-05-14T00:41:32.053Z,100.0000
2023-05-14T00:42:32.697Z,100.0000
2023-05-14T00:43:33.650Z,100.0000
2023-05-14T00:45:36.901Z,100.0000
2023-05-14T00:46:37.883Z,100.0000
2023-05-14T00:47:37.947Z,100.0000
2023-05-14T00:48:38.767Z,100.0000
2023-05-14T00:49:38.742Z,100.0000
2023-05-14T00:50:39.472Z,100.0000
2023-05-14T00:51:40.612Z,100.0000
2023-05-14T00:52:41.344Z,100.0000
2023-05-14T00:53:41.404Z,100.0000
2023-05-14T00:54:41.430Z,100.0000
2023-05-14T00:55:41.495Z,100.0000
2023-05-14T00:56:42.077Z,100.0000
2023-05-14T00:57:43.029Z,100.0000
2023-05-14T00:58:43.061Z,100.0000
2023-05-14T00:59:43.138Z,100.0000
2023-05-14T01:00:43.267Z,100.0000
2023-05-14T01:01:43.957Z,100.0000
2023-05-14T01:02:44.065Z,100.0000
2023-05-14T01:03:44.245Z,100.0000
2023-05-14T01:04:44.968Z,100.0000
2023-05-14T01:05:44.985Z,100.0000
2023-05-14T01:06:45.664Z,100.0000
2023-05-14T01:07:46.334Z,100.0000
2023-05-14T01:08:47.057Z,100.0000
2023-05-14T01:09:47.101Z,100.0000
2023-05-14T01:10:47.155Z,99.9947
2023-05-14T01:11:47.864Z,99.9296
2023-05-14T01:12:47.908Z,99.9927
2023-05-14T01:13:48.993Z,100.0000
2023-05-14T01:14:49.930Z,100.0000
2023-05-14T01:15:49.954Z,100.0000
2023-05-14T01:16:50.081Z,100.0000
2023-05-14T01:17:50.158Z,99.9996
2023-05-14T01:18:50.266Z,100.0000
2023-05-14T01:19:50.341Z,99.9816
2023-05-14T01:20:50.384Z,99.3870
2023-05-14T01:21:50.427Z,99.0071
2023-05-14T01:22:50.452Z,99.1481
2023-05-14T01:23:50.523Z,98.9355
2023-05-14T01:24:50.558Z,98.7369
2023-05-14T01:25:50.578Z,98.9427
2023-05-14T01:26:50.626Z,99.1599
2023-05-14T01:27:51.006Z,99.2526
2023-05-14T01:28:51.104Z,99.3857
2023-05-14T01:29:51.114Z,99.5956
2023-05-14T01:30:51.774Z,99.7276
2023-05-14T01:31:51.833Z,99.8905
2023-05-14T01:32:52.482Z,99.9117
2023-05-14T01:33:53.307Z,99.9091
2023-05-14T01:34:53.612Z,99.7739
2023-05-14T01:35:54.356Z,99.7332
2023-05-14T01:36:54.699Z,99.6971
2023-05-14T01:37:54.739Z,99.5007
2023-05-14T01:38:55.926Z,99.3069
2023-05-14T01:39:55.998Z,99.1911
2023-05-14T01:40:56.426Z,99.3009
2023-05-14T01:41:57.187Z,99.5190
2023-05-14T01:42:57.253Z,99.5933
2023-05-14T01:43:58.066Z,99.8100
2023-05-14T01:44:58.764Z,99.9458
2023-05-14T01:45:58.816Z,99.9483
2023-05-14T01:46:59.492Z,99.8100
2023-05-14T01:48:00.796Z,99.8213
2023-05-14T01:49:00.856Z,99.8344
2023-05-14T01:50:01.491Z,99.9629
2023-05-14T01:51:01.692Z,100.0000
2023-05-14T01:53:02.982Z,99.9947
2023-05-14T01:54:03.008Z,99.9655
2023-05-14T01:55:03.691Z,100.0000
2023-05-14T01:56:04.302Z,100.0000
2023-05-14T01:57:05.063Z,100.0000
2023-05-14T01:58:06.556Z,99.9982
2023-05-14T01:59:06.597Z,100.0000
2023-05-14T02:00:07.258Z,100.0000
2023-05-14T02:01:08.603Z,100.0000
2023-05-14T02:07:13.546Z,100.0000
2023-05-14T02:08:13.583Z,100.0000
2023-05-14T02:09:13.612Z,100.0000
2023-05-14T02:10:14.243Z,100.0000
2023-05-14T02:11:14.280Z,100.0000
2023-05-14T02:13:15.142Z,100.0000
2023-05-14T02:14:16.276Z,100.0000
2023-05-14T02:19:23.936Z,100.0000
2023-05-14T02:20:24.624Z,100.0000
2023-05-14T02:21:25.189Z,100.0000
2023-05-14T02:22:26.039Z,100.0000
2023-05-14T02:23:37.983Z,100.0000
2023-05-14T02:24:26.703Z,100.0000
2023-05-14T02:25:27.548Z,100.0000
2023-05-14T02:26:28.218Z,100.0000
2023-05-14T02:27:28.671Z,100.0000
2023-05-14T02:28:29.322Z,100.0000
2023-05-14T02:29:29.424Z,100.0000
2023-05-14T02:30:29.817Z,100.0000
2023-05-14T02:31:30.898Z,100.0000
2023-05-14T02:32:31.250Z,100.0000
2023-05-14T02:33:32.452Z,100.0000
2023-05-14T02:34:33.484Z,100.0000
2023-05-14T02:35:33.559Z,100.0000
2023-05-14T02:36:34.404Z,100.0000
2023-05-14T02:37:35.630Z,100.0000
2023-05-14T02:38:35.692Z,100.0000
2023-05-14T02:39:36.361Z,100.0000
2023-05-14T02:40:36.504Z,100.0000
2023-05-14T02:41:37.933Z,100.0000
2023-05-14T02:42:38.856Z,100.0000
2023-05-14T02:43:38.911Z,100.0000
2023-05-14T02:44:40.416Z,100.0000
2023-05-14T02:45:41.169Z,100.0000
2023-05-14T02:46:41.616Z,100.0000
2023-05-14T02:47:42.607Z,100.0000
2023-05-14T02:48:43.785Z,100.0000
2023-05-14T02:49:43.835Z,100.0000
2023-05-14T02:50:44.703Z,100.0000
2023-05-14T02:51:44.968Z,100.0000
2023-05-14T02:52:45.109Z,100.0000
2023-05-14T02:53:45.344Z,100.0000
2023-05-14T02:54:46.420Z,100.0000
2023-05-14T02:55:46.513Z,100.0000
2023-05-14T02:56:47.375Z,100.0000
2023-05-14T02:57:47.633Z,100.0000
2023-05-14T02:59:48.268Z,100.0000
2023-05-14T03:00:48.854Z,100.0000
2023-05-14T03:01:50.400Z,100.0000
2023-05-14T03:02:51.124Z,100.0000
2023-05-14T03:03:51.883Z,100.0000
2023-05-14T03:04:52.717Z,100.0000
2023-05-14T03:05:52.927Z,100.0000
2023-05-14T03:06:53.575Z,100.0000
2023-05-14T03:07:54.526Z,100.0000
2023-05-14T03:08:54.754Z,100.0000
2023-05-14T03:09:55.512Z,100.0000
2023-05-14T03:10:56.327Z,100.0000
2023-05-14T03:11:56.779Z,100.0000
2023-05-14T03:12:57.638Z,100.0000
2023-05-14T03:13:57.693Z,100.0000
2023-05-14T03:14:58.998Z,100.0000
2023-05-14T03:15:59.939Z,100.0000
2023-05-14T03:17:00.841Z,100.0000
2023-05-14T03:18:01.123Z,100.0000
2023-05-14T03:19:01.322Z,100.0000
2023-05-14T03:20:01.968Z,100.0000
2023-05-14T03:21:02.824Z,100.0000
2023-05-14T03:22:02.882Z,100.0000
2023-05-14T03:23:03.139Z,100.0000
2023-05-14T03:24:03.375Z,100.0000
2023-05-14T03:25:04.249Z,100.0000
2023-05-14T03:26:04.576Z,100.0000
2023-05-14T03:27:04.638Z,100.0000
2023-05-14T03:28:05.461Z,100.0000
2023-05-14T03:29:05.516Z,100.0000
2023-05-14T03:30:06.770Z,100.0000
2023-05-14T03:31:07.569Z,100.0000
2023-05-14T03:32:08.279Z,100.0000
2023-05-14T03:33:09.108Z,100.0000
2023-05-14T03:34:09.205Z,100.0000
2023-05-14T03:35:10.782Z,100.0000
2023-05-14T03:36:11.754Z,100.0000
2023-05-14T03:38:13.236Z,100.0000
2023-05-14T03:39:13.713Z,100.0000
2023-05-14T03:40:14.969Z,100.0000
2023-05-14T03:41:16.007Z,100.0000
2023-05-14T03:42:16.889Z,100.0000
2023-05-14T03:43:17.005Z,100.0000
2023-05-14T03:44:17.965Z,100.0000
2023-05-14T03:45:19.574Z,100.0000
2023-05-14T03:46:21.521Z,100.0000
2023-05-14T03:48:25.359Z,100.0000
2023-05-14T03:49:25.491Z,100.0000
2023-05-14T03:50:26.347Z,100.0000
2023-05-14T03:51:27.113Z,100.0000
2023-05-14T03:52:27.155Z,100.0000
2023-05-14T03:53:27.887Z,100.0000
2023-05-14T03:54:28.499Z,100.0000
2023-05-14T03:55:28.603Z,100.0000
2023-05-14T03:56:29.768Z,100.0000
2023-05-14T03:57:30.411Z,100.0000
2023-05-14T03:58:30.501Z,100.0000
2023-05-14T03:59:31.841Z,100.0000
2023-05-14T04:00:32.932Z,100.0000
2023-05-14T04:01:32.999Z,100.0000
2023-05-14T04:02:33.805Z,100.0000
2023-05-14T04:03:34.094Z,100.0000
2023-05-14T04:04:35.447Z,100.0000
2023-05-14T04:05:35.554Z,100.0000
2023-05-14T04:06:35.624Z,100.0000
2023-05-14T04:07:36.405Z,100.0000
2023-05-14T04:08:37.237Z,100.0000
2023-05-14T04:09:37.961Z,100.0000
2023-05-14T04:10:38.071Z,100.0000
2023-05-14T04:11:38.145Z,100.0000
2023-05-14T04:12:38.906Z,100.0000
2023-05-14T04:13:39.461Z,100.0000
2023-05-14T04:14:39.553Z,100.0000
2023-05-14T04:15:40.558Z,100.0000
2023-05-14T04:16:40.750Z,100.0000
2023-05-14T04:17:41.249Z,100.0000
2023-05-14T04:18:41.984Z,100.0000
2023-05-14T04:19:42.738Z,100.0000
2023-05-14T04:25:47.636Z,100.0000
2023-05-14T04:26:48.467Z,100.0000
2023-05-14T04:27:49.145Z,100.0000
2023-05-14T04:28:49.227Z,100.0000
2023-05-14T04:29:49.953Z,100.0000
2023-05-14T04:30:50.850Z,100.0000
2023-05-14T04:31:50.962Z,100.0000
2023-05-14T04:32:51.697Z,100.0000
2023-05-14T04:33:51.778Z,100.0000
2023-05-14T04:34:52.458Z,100.0000
2023-05-14T04:35:52.596Z,100.0000
2023-05-14T04:36:53.346Z,100.0000
2023-05-14T04:37:54.193Z,100.0000
2023-05-14T04:38:54.843Z,100.0000
2023-05-14T04:39:55.730Z,100.0000
2023-05-14T04:40:56.475Z,100.0000
2023-05-14T04:41:56.571Z,100.0000
2023-05-14T04:42:57.249Z,100.0000
2023-05-14T04:43:57.932Z,100.0000
2023-05-14T04:44:57.994Z,100.0000
2023-05-14T04:45:58.962Z,100.0000
2023-05-14T04:46:59.714Z,100.0000
2023-05-14T04:47:59.836Z,100.0000
2023-05-14T04:49:00.611Z,100.0000
2023-05-14T04:50:00.689Z,100.0000
2023-05-14T04:57:07.497Z,99.6137
2023-05-14T04:58:07.625Z,99.5280
2023-05-14T04:59:07.959Z,99.3321
2023-05-14T05:00:08.060Z,98.7235
2023-05-14T05:01:08.251Z,98.3560
2023-05-14T05:02:08.322Z,98.3979
2023-05-14T05:03:09.086Z,98.6128
2023-05-14T05:04:09.358Z,98.7819
2023-05-14T05:05:09.941Z,98.7267
2023-05-14T05:06:10.905Z,98.4996
2023-05-14T05:07:10.978Z,98.2239
2023-05-14T05:08:11.745Z,97.2058
2023-05-14T05:09:12.523Z,97.1510
2023-05-14T05:11:16.133Z,97.2069
2023-05-14T05:12:16.897Z,97.4305
2023-05-14T05:13:18.267Z,96.7817
2023-05-14T05:14:18.356Z,95.8544
2023-05-14T05:15:18.419Z,96.1352
2023-05-14T05:16:18.694Z,96.6092
2023-05-14T05:17:18.789Z,97.0715
2023-05-14T05:18:18.878Z,96.2613
2023-05-14T05:19:20.844Z,95.7221
2023-05-14T05:20:19.797Z,95.5511
2023-05-14T05:21:20.363Z,96.0933
2023-05-14T05:22:20.420Z,96.3915
2023-05-14T05:23:21.645Z,95.4637
2023-05-14T05:24:22.382Z,94.9790
2023-05-14T05:25:23.776Z,95.7303
2023-05-14T05:26:23.842Z,95.6912
2023-05-14T05:27:24.542Z,94.1330
2023-05-14T05:28:24.709Z,94.0440
2023-05-14T05:29:25.373Z,94.5750
2023-05-14T05:30:26.254Z,94.3693
2023-05-14T05:31:26.457Z,94.8563
2023-05-14T05:32:27.234Z,94.5929
2023-05-14T05:33:27.286Z,93.5979
2023-05-14T05:34:28.075Z,93.2555
2023-05-14T05:35:28.973Z,93.0019
2023-05-14T05:36:29.079Z,92.9083
2023-05-14T05:37:30.087Z,93.1165
2023-05-14T05:38:30.189Z,93.6203
2023-05-14T05:39:30.266Z,93.7298
2023-05-14T05:40:30.402Z,93.9153
2023-05-14T05:41:30.460Z,94.2684
2023-05-14T05:42:30.866Z,94.0226
2023-05-14T05:43:31.000Z,92.8373
2023-05-14T05:44:31.107Z,93.3403
2023-05-14T05:45:31.793Z,92.7792
2023-05-14T05:46:31.950Z,94.1009
2023-05-14T05:47:32.654Z,93.7100
2023-05-14T05:48:33.309Z,93.5952
2023-05-14T05:49:33.599Z,92.4828
2023-05-14T05:50:34.329Z,90.9512
2023-05-14T05:51:35.070Z,91.2177
2023-05-14T05:52:35.777Z,91.2958
2023-05-14T05:53:35.865Z,90.7267
2023-05-14T05:54:36.627Z,90.7897
2023-05-14T05:55:37.468Z,91.0698
2023-05-14T05:56:37.553Z,89.4689
2023-05-14T05:57:37.641Z,90.3818
2023-05-14T05:58:37.980Z,89.4646
2023-05-14T05:59:38.090Z,89.4789
2023-05-14T06:00:39.076Z,88.3086
2023-05-14T06:01:40.286Z,90.4293
2023-05-14T06:03:45.268Z,91.5592
2023-05-14T06:04:44.990Z,90.6651
2023-05-14T06:05:45.210Z,90.0988
2023-05-14T06:06:45.958Z,90.1419
2023-05-14T06:07:46.692Z,90.4368
2023-05-14T06:09:46.895Z,90.2875
2023-05-14T06:10:47.634Z,91.2175
2023-05-14T06:27:15.538Z,95.1909
2023-05-14T06:28:16.231Z,94.7254
2023-05-14T06:29:17.034Z,94.3318
2023-05-14T06:31:20.477Z,94.3302
2023-05-14T06:32:21.403Z,93.5271
2023-05-14T06:33:21.586Z,94.5653
2023-05-14T06:34:22.282Z,94.2829
2023-05-14T06:35:23.002Z,94.0428
2023-05-14T06:38:26.354Z,93.7145
2023-05-14T06:39:27.021Z,94.5427
2023-05-14T06:40:27.786Z,93.7931
2023-05-14T06:41:27.848Z,93.2862
2023-05-14T06:42:27.941Z,93.7621
2023-05-14T06:43:45.739Z,93.9505
2023-05-14T06:44:29.610Z,93.5543
2023-05-14T06:45:33.189Z,93.5490
2023-05-14T06:46:33.415Z,93.3677
2023-05-14T06:47:34.267Z,92.7687
2023-05-14T06:48:35.174Z,92.6601
2023-05-14T06:50:35.806Z,92.5904
2023-05-14T06:52:37.487Z,92.2332
2023-05-14T07:03:11.796Z,94.2962
2023-05-14T07:03:53.650Z,93.7524
2023-05-14T07:04:54.187Z,93.2919
2023-05-14T07:05:54.382Z,93.9522
2023-05-14T07:06:55.078Z,93.3755
2023-05-14T07:07:55.220Z,94.4915
2023-05-14T07:08:55.897Z,94.4665
2023-05-14T07:09:56.678Z,95.1485
2023-05-14T07:10:56.759Z,95.0066
2023-05-14T07:11:56.840Z,95.1179
2023-05-14T07:12:57.514Z,94.5364
2023-05-14T07:13:58.249Z,94.4503
2023-05-14T07:14:58.367Z,93.8928
2023-05-14T07:15:58.466Z,93.7927
2023-05-14T07:16:58.639Z,93.8322
2023-05-14T07:17:59.423Z,93.3331
2023-05-14T07:18:59.557Z,94.1989
2023-05-14T07:20:00.294Z,94.2666
2023-05-14T07:21:00.427Z,94.8275
2023-05-14T07:22:01.155Z,95.8439
2023-05-14T07:23:01.233Z,96.4312
2023-05-14T07:24:01.315Z,96.2369
2023-05-14T07:25:02.123Z,96.0143
2023-05-14T07:26:02.209Z,94.9248
2023-05-14T07:27:03.009Z,95.4416
2023-05-14T07:28:03.739Z,95.3608
2023-05-14T07:29:04.594Z,94.9795
2023-05-14T07:31:05.947Z,92.1924
2023-05-14T07:32:06.034Z,91.5579
2023-05-14T07:33:06.813Z,90.8422
2023-05-14T07:34:07.707Z,90.0904
2023-05-14T07:35:07.830Z,89.2914
2023-05-14T07:36:08.546Z,89.0210
2023-05-14T07:37:08.626Z,89.0184
2023-05-14T07:38:09.422Z,87.9540
2023-05-14T07:39:09.512Z,88.2843
2023-05-14T07:40:10.290Z,89.2045
2023-05-14T07:41:10.409Z,89.1211
2023-05-14T07:42:10.448Z,89.4290
2023-05-14T07:43:10.544Z,90.0488
2023-05-14T07:44:10.640Z,90.2020
2023-05-14T07:45:10.932Z,88.6417
2023-05-14T07:46:11.105Z,87.2113
2023-05-14T07:47:11.704Z,86.5180
2023-05-14T07:48:12.186Z,84.4744
2023-05-14T07:49:13.092Z,83.3714
2023-05-14T07:50:14.341Z,81.4352
2023-05-14T07:51:16.186Z,82.2395
2023-05-14T07:52:23.281Z,81.9118
2023-05-14T08:00:28.678Z,75.5106
2023-05-14T08:01:28.870Z,79.7101
2023-05-14T08:02:29.016Z,80.9051
2023-05-14T08:03:42.442Z,81.0309
2023-05-14T08:04:31.708Z,82.2931
2023-05-14T08:05:31.786Z,82.3159
2023-05-14T08:06:32.517Z,80.2548
2023-05-14T08:07:35.159Z,78.8991
2023-05-14T08:08:35.259Z,77.9248
2023-05-14T08:09:35.336Z,79.9424
2023-05-14T08:10:36.187Z,81.2530
2023-05-14T08:11:36.332Z,83.1118
2023-05-14T08:12:36.444Z,80.0581
2023-05-14T08:13:37.206Z,75.8362
2023-05-14T08:14:38.063Z,75.2826
2023-05-14T08:15:38.155Z,78.5117
2023-05-14T08:16:38.887Z,78.0181
2023-05-14T08:17:39.045Z,79.8238
2023-05-14T08:19:40.555Z,82.0733
2023-05-14T08:20:40.640Z,83.6629
2023-05-14T08:21:41.484Z,82.2348
2023-05-14T08:22:41.578Z,77.1470
2023-05-14T08:23:42.554Z,77.9425
2023-05-14T08:24:42.654Z,77.0920
2023-05-14T08:25:42.802Z,75.8207
2023-05-14T08:26:42.866Z,79.2600
2023-05-14T08:27:42.983Z,81.6485
2023-05-14T08:28:43.931Z,81.1986
2023-05-14T08:29:44.030Z,83.3997
2023-05-14T08:30:44.801Z,82.6338
2023-05-14T08:31:44.875Z,82.2947
2023-05-14T08:32:45.579Z,83.0052
2023-05-14T08:33:47.035Z,82.4832
2023-05-14T08:34:48.510Z,82.2801
2023-05-14T08:35:49.252Z,81.8813
2023-05-14T08:36:53.667Z,81.8847
2023-05-14T08:40:54.148Z,81.4448
2023-05-14T08:41:55.161Z,80.6053
2023-05-14T08:42:55.497Z,81.8995
2023-05-14T08:43:56.504Z,80.3424
2023-05-14T08:44:56.840Z,80.7822
2023-05-14T08:45:57.664Z,82.1374
2023-05-14T08:46:58.555Z,80.6739
2023-05-14T08:47:59.656Z,80.2127
2023-05-14T08:49:00.579Z,79.6588
2023-05-14T08:50:01.559Z,79.6416
2023-05-14T08:51:02.149Z,79.9095
2023-05-14T08:52:03.603Z,79.1393
2023-05-14T08:53:03.748Z,79.0890
2023-05-14T08:54:05.585Z,78.8006
2023-05-14T08:55:06.607Z,78.0079
2023-05-14T08:56:07.013Z,76.0757
2023-05-14T08:57:07.157Z,76.0323
2023-05-14T08:58:20.974Z,75.5762
2023-05-14T08:59:21.082Z,78.2347
2023-05-14T09:00:21.316Z,76.7644
2023-05-14T09:01:21.734Z,71.4774
2023-05-14T09:02:22.847Z,71.2622
2023-05-14T09:03:23.349Z,72.0084
2023-05-14T09:04:23.544Z,71.2575
2023-05-14T09:05:24.482Z,72.2527
2023-05-14T09:06:24.765Z,69.3151
2023-05-14T09:07:25.273Z,71.3882
2023-05-14T09:08:28.866Z,68.0881
2023-05-14T09:13:32.857Z,72.7579
2023-05-14T09:14:33.006Z,68.5026
2023-05-14T09:15:33.964Z,74.8337
2023-05-14T09:16:34.747Z,74.5941
2023-05-14T09:17:35.426Z,76.0233
2023-05-14T09:18:36.223Z,75.1713
2023-05-14T09:19:36.327Z,73.6117
2023-05-14T09:20:37.074Z,74.0719
2023-05-14T09:21:37.203Z,75.4217
2023-05-14T09:22:58.334Z,75.8919
2023-05-14T09:23:40.532Z,76.1539
2023-05-14T09:24:41.022Z,78.2760
2023-05-14T09:25:41.869Z,78.5385
2023-05-14T09:26:41.994Z,79.1232
2023-05-14T09:27:42.118Z,78.5240
2023-05-14T09:28:42.236Z,79.0578
2023-05-14T09:29:42.406Z,79.3235
2023-05-14T09:30:42.558Z,78.6815
2023-05-14T09:31:43.501Z,80.1409
2023-05-14T09:32:44.399Z,80.6853
2023-05-14T09:33:44.889Z,81.2006
2023-05-14T09:34:45.466Z,81.1980
2023-05-14T09:35:45.661Z,81.5511
2023-05-14T09:36:46.378Z,83.4911
2023-05-14T09:37:46.673Z,79.8882
2023-05-14T09:38:46.935Z,79.3338
2023-05-14T09:39:47.831Z,79.8522
2023-05-14T09:40:48.181Z,80.3958
2023-05-14T09:41:48.302Z,79.5520
2023-05-14T09:42:48.990Z,80.1671
2023-05-14T09:43:49.922Z,78.1736
2023-05-14T09:45:50.709Z,75.8441
2023-05-14T09:46:51.458Z,77.2333
2023-05-14T09:48:51.962Z,76.6959
2023-05-14T09:49:52.095Z,76.5753
2023-05-14T09:50:52.426Z,75.9726
2023-05-14T09:51:53.299Z,75.0713
2023-05-14T09:52:54.120Z,75.2950
2023-05-14T09:53:54.466Z,76.9211
2023-05-14T09:54:55.454Z,76.3993
2023-05-14T09:55:55.663Z,77.8303
2023-05-14T09:56:55.962Z,78.7169
2023-05-14T09:57:57.150Z,79.1308
2023-05-14T09:58:57.274Z,81.3481
2023-05-14T09:59:57.453Z,80.3759
2023-05-14T10:00:57.711Z,81.3520
2023-05-14T10:01:57.884Z,83.0018
2023-05-14T10:02:58.023Z,84.5220
2023-05-14T10:04:02.562Z,84.7535
2023-05-14T10:10:08.921Z,84.4700
2023-05-14T10:11:09.047Z,82.9160
2023-05-14T10:12:09.696Z,83.9870
2023-05-14T10:13:10.263Z,83.3014
2023-05-14T10:14:11.596Z,81.5133
2023-05-14T10:15:12.328Z,82.6086
2023-05-14T10:16:12.927Z,83.7976
2023-05-14T10:17:13.188Z,84.5643
2023-05-14T10:18:13.355Z,84.4089
2023-05-14T10:19:14.020Z,82.2031
2023-05-14T10:20:14.177Z,82.2770
2023-05-14T10:21:14.287Z,81.5978
2023-05-14T10:22:14.959Z,80.7430
2023-05-14T10:23:16.284Z,80.9997
2023-05-14T10:24:16.440Z,81.6951
2023-05-14T10:25:16.561Z,82.2990
2023-05-14T10:26:17.596Z,83.2075
2023-05-14T10:27:17.736Z,82.7022
2023-05-14T10:28:17.900Z,80.4370
2023-05-14T10:29:18.054Z,80.3899
2023-05-14T10:30:18.200Z,80.8312
2023-05-14T10:31:18.414Z,81.4138
2023-05-14T10:32:18.621Z,80.8021
2023-05-14T10:33:18.868Z,81.3161
2023-05-14T10:34:19.056Z,81.0139
2023-05-14T10:35:20.009Z,82.7989
2023-05-14T10:36:20.136Z,81.2342
2023-05-14T10:37:20.673Z,83.6439
2023-05-14T10:38:20.771Z,83.6715
2023-05-14T10:39:21.869Z,82.8249
2023-05-14T10:40:22.927Z,80.2543
2023-05-14T10:41:23.382Z,81.2460
2023-05-14T10:42:23.561Z,82.5834
2023-05-14T10:43:23.638Z,80.6983
2023-05-14T10:44:23.872Z,81.3678
2023-05-14T10:45:24.421Z,81.8841
2023-05-14T10:46:24.655Z,81.2003
2023-05-14T10:47:24.794Z,81.6562
2023-05-14T10:48:25.080Z,80.4445
2023-05-14T10:49:39.718Z,80.8698
2023-05-14T10:50:26.972Z,79.1411
2023-05-14T10:51:27.786Z,81.0130
2023-05-14T10:52:27.914Z,79.2916
2023-05-14T10:53:28.015Z,77.5312
2023-05-14T10:54:29.126Z,79.7577
2023-05-14T10:55:29.316Z,77.1348
2023-05-14T10:56:29.434Z,77.7231
2023-05-14T10:57:30.260Z,80.8127
2023-05-14T10:58:30.420Z,78.1417
2023-05-14T10:59:31.190Z,77.0837
2023-05-14T11:00:31.359Z,77.0508
2023-05-14T11:01:31.494Z,76.7107
2023-05-14T11:02:32.263Z,76.9731
2023-05-14T11:03:33.125Z,76.4737
2023-05-14T11:04:33.425Z,75.1415
2023-05-14T11:05:33.541Z,73.3050
2023-05-14T11:06:33.682Z,73.1402
2023-05-14T11:07:33.787Z,74.0852
2023-05-14T11:08:33.948Z,74.7630
2023-05-14T11:09:34.685Z,72.1432
2023-05-14T11:10:34.889Z,68.3554
2023-05-14T11:11:35.716Z,69.8894
2023-05-14T11:12:35.871Z,68.8234
2023-05-14T11:13:36.002Z,70.4775
2023-05-14T11:14:36.140Z,69.6420
2023-05-14T11:15:36.344Z,70.4945
2023-05-14T11:16:37.185Z,66.3395
2023-05-14T11:17:37.405Z,69.1629
2023-05-14T11:18:38.274Z,73.3625
2023-05-14T11:19:38.395Z,69.7688
2023-05-14T11:20:38.520Z,70.4567
2023-05-14T11:21:39.527Z,70.6403
2023-05-14T11:22:39.681Z,73.1098
2023-05-14T11:23:40.003Z,76.4383
2023-05-14T11:24:40.191Z,78.6530
2023-05-14T11:25:40.803Z,79.6434
2023-05-14T11:26:41.011Z,81.5816
2023-05-14T11:27:41.813Z,82.1626
2023-05-14T11:28:41.949Z,81.4877
2023-05-14T11:29:42.734Z,80.4716
2023-05-14T11:30:43.755Z,80.8101
2023-05-14T11:33:48.005Z,82.3103
2023-05-14T11:34:48.147Z,82.2370
2023-05-14T11:35:48.302Z,79.3231
2023-05-14T11:36:48.454Z,79.6728
2023-05-14T11:37:50.898Z,79.9949
2023-05-14T11:38:51.054Z,82.5369
2023-05-14T11:39:58.359Z,79.3077
2023-05-14T11:42:10.508Z,78.1679
2023-05-14T11:42:59.144Z,77.5840
2023-05-14T11:43:59.992Z,76.6527
2023-05-14T11:45:00.755Z,79.7352
2023-05-14T11:46:00.960Z,79.0690
2023-05-14T11:47:01.793Z,79.3148
2023-05-14T11:48:01.946Z,78.4450
2023-05-14T11:49:02.723Z,75.1538
2023-05-14T11:50:19.972Z,75.9446
2023-05-14T11:51:42.306Z,77.8458
2023-05-14T11:52:43.341Z,79.4200
2023-05-14T11:53:44.797Z,77.6484
2023-05-14T11:54:45.334Z,77.1898
2023-05-14T11:55:45.674Z,75.4928
2023-05-14T11:57:03.262Z,78.1030
2023-05-14T11:57:47.835Z,76.2100
2023-05-14T11:58:48.623Z,76.9356
2023-05-14T11:59:48.767Z,75.2177
2023-05-14T12:00:50.053Z,74.6276
2023-05-14T12:01:50.993Z,74.3705
2023-05-14T12:02:51.214Z,72.9489
2023-05-14T12:03:52.325Z,70.0916
2023-05-14T12:04:53.831Z,72.7044
2023-05-14T12:05:54.602Z,76.9313
2023-05-14T12:06:54.948Z,75.8040
2023-05-14T12:07:55.496Z,75.6276
2023-05-14T12:08:55.948Z,77.9819
2023-05-14T12:09:56.169Z,79.9371
2023-05-14T12:10:56.447Z,78.1545
2023-05-14T12:11:56.906Z,78.3257
2023-05-14T12:12:57.314Z,79.0264
2023-05-14T12:13:57.709Z,77.8320
2023-05-14T12:14:58.050Z,79.1954
2023-05-14T12:15:58.262Z,79.5488
2023-05-14T12:16:58.645Z,80.6950
2023-05-14T12:18:59.550Z,83.5420
2023-05-14T12:19:59.737Z,84.8051
2023-05-14T12:21:01.497Z,85.4327
2023-05-14T12:22:02.291Z,86.2678
2023-05-14T12:23:02.406Z,86.5368
2023-05-14T12:24:03.345Z,87.0268
2023-05-14T12:25:04.377Z,87.6199
2023-05-14T12:26:04.572Z,87.3296
2023-05-14T12:27:05.635Z,87.6942
2023-05-14T12:28:05.979Z,88.1618
2023-05-14T12:29:06.331Z,87.3722
2023-05-14T12:31:07.389Z,88.7540
2023-05-14T12:32:08.842Z,88.9420
2023-05-14T12:33:09.710Z,88.9484
2023-05-14T12:34:09.856Z,88.9478
2023-05-14T12:35:10.631Z,89.9146
2023-05-14T12:36:21.188Z,90.2932
2023-05-14T12:37:13.912Z,89.3790
2023-05-14T12:38:15.020Z,90.4951
2023-05-14T12:39:15.466Z,91.9741
2023-05-14T12:40:15.625Z,91.7095
2023-05-14T12:41:15.960Z,91.6557
2023-05-14T12:42:17.652Z,91.3507
2023-05-14T12:43:17.818Z,91.6914
2023-05-14T12:44:17.951Z,92.0622
2023-05-14T12:45:18.068Z,92.8853
2023-05-14T12:46:18.193Z,92.6742
2023-05-14T12:47:18.423Z,92.7600
2023-05-14T12:48:18.574Z,92.9526
2023-05-14T12:49:18.728Z,92.3967
2023-05-14T12:50:19.496Z,92.6341
2023-05-14T12:52:36.124Z,93.1035
2023-05-14T12:53:24.047Z,93.4681
2023-05-14T13:03:38.265Z,91.7748
2023-05-14T13:04:38.659Z,92.2237
2023-05-14T13:05:41.422Z,92.7582
2023-05-14T13:09:44.265Z,92.8943
2023-05-14T13:10:44.421Z,92.8196
2023-05-14T13:11:44.563Z,91.5487
2023-05-14T13:12:44.692Z,91.4629
2023-05-14T13:13:44.834Z,91.2218
2023-05-14T13:14:44.982Z,86.5556
2023-05-14T13:15:45.182Z,84.9182
2023-05-14T13:16:45.408Z,85.9886
2023-05-14T13:17:45.682Z,84.1870
2023-05-14T13:18:45.846Z,85.0907
2023-05-14T13:19:45.968Z,85.9842
2023-05-14T13:20:46.127Z,85.2671
2023-05-14T13:21:46.272Z,84.4118
2023-05-14T13:22:46.392Z,86.2596
2023-05-14T13:23:46.532Z,84.7461
2023-05-14T13:24:46.887Z,84.9642
2023-05-14T13:25:49.671Z,85.0835
2023-05-14T13:26:47.351Z,84.9526
2023-05-14T13:27:47.503Z,84.2705
2023-05-14T13:28:47.703Z,83.0631
2023-05-14T13:30:49.049Z,83.9550
2023-05-14T13:31:49.181Z,83.5978
2023-05-14T13:33:50.168Z,82.8848
2023-05-14T13:34:50.338Z,80.5088
2023-05-14T13:35:51.288Z,80.3697
2023-05-14T13:36:52.471Z,82.3635
2023-05-14T13:37:53.973Z,81.7359
2023-05-14T13:38:55.594Z,81.4909
2023-05-14T13:39:56.012Z,81.4144
2023-05-14T13:40:56.389Z,81.4984
2023-05-14T13:41:56.598Z,81.0079
2023-05-14T13:42:57.525Z,80.9793
2023-05-14T13:43:58.308Z,79.8518
2023-05-14T13:44:58.477Z,79.6624
2023-05-14T13:45:58.727Z,78.1962
2023-05-14T13:46:58.916Z,78.1687
2023-05-14T13:47:59.115Z,79.3270
2023-05-14T13:48:59.323Z,78.7606
2023-05-14T13:51:00.188Z,76.5861
2023-05-14T13:52:00.359Z,78.4212
2023-05-14T13:53:01.398Z,80.7023
2023-05-14T13:54:02.223Z,81.1260